首页
METAR-TAF:

METAR-TAF

机场 :

賓漢頓, 紐約州, 美国

纬度: 42-12-28N, 经度: 075-58-53W, 海拔: 496米

当前天气观测

该预报发布于2小时和42分钟前的04:53 UTC
风速5节,风向北转东北
温度 17°C
湿度 94%
气压 1011 hPa
能見度: 6.4公里
阴天层高于500英尺
小雨, 轻雾

METAR: KBGM 230453Z AUTO 03005KT 4SM -RA BR OVC005 17/16 A2986 RMK AO2 RAB37 CIG 003V009 SLP106 P0000 T01670156 402110161

时间: 03:35 (07:35 UTC)

预报

该预报发布于1小时和55分钟前的05:40 UTC
预报有效从23日的 06点(UTC)到 24日的 06点(UTC)
风速4节,风向
能見度: 10公里
阴天层高于500英尺
从 23日的 0900点(UTC)
风速5节,风向
能見度: 10公里
少量云层高于700英尺
阴天层高于1200英尺
短暂存在
从 23日的 09点(UTC)到 23日的 12点(UTC)
阴天层高于700英尺
从 23日的 1400点(UTC)
风速6节,风向
能見度: 10公里
多云层高于2000英尺
从 23日的 1600点(UTC)
风速6节,风向北转西北
能見度: 10公里
散云层高于3500英尺
多云层高于5000英尺
从 24日的 0100点(UTC)
风速3节,风向西北
能見度: 10公里
散云层高于5000英尺

TAF: KBGM 230540Z 2306/2406 01004KT P6SM OVC005 FM230900 35005KT P6SM FEW007 OVC012 TEMPO 2309/2312 OVC007 FM231400 35006KT P6SM BKN020 FM231600 34006KT P6SM SCT035 BKN050 FM240100 32003KT P6SM SCT050

超过4000个机场的气象观测和天气预报(METAR&TAF报告)。

可查询的气象台以黄色和红色小点在地图上表示。

将鼠标移到小点上方,可查看气象台名称。

然后点击查看天气观测和预报。

如需切换地图:点击带黑十字的绿色按钮放大地图;点击带横线的绿色按钮缩小地图;或者点击绿色箭头查看邻近地区的地图。


METAR-TAF: